Etusivu
METAR-TAF:

METAR-TAF

Lentoasemat :

Dübendorf, Sveitsi

Leveyspiiri: 47-23-55N, Pituuspiiri: 8-38-53E, korkeus merenpinnasta: 448 m

Tämänhetkinen sää

Tämä raportti tehtiin 37 minuuttia sitten, kello 16.20 UTC
Tuuli 10 kn luoteesta, vaihdellen lännen ja pohjoisen/luoteen välillä
Lämpötila 21°C
Kosteus 64%
Ilmanpaine 1015 hPa
Näkyvyys 10 km tai enemmän
Hajonneita pilviä 3300 ft:n korkeudessa
Pilvistä 4900 ft:n korkeudessa

METAR: LSMD 021620Z AUTO 32010KT 280V340 9999NDV BKN033 OVC049 21/14 Q1015 RMK

Aika: 18:57 (16:57 UTC)


TAF: puuttuu

Säähavainnot ja -ennusteet yli 4000 lentoasemalta (METAR- ja TAF-raportit).

Käytössä olevat sääasemat on merkitty karttaan keltaisilla ja punaisilla pisteillä.

Aseta hiiri pisteen päälle nähdäksesi sääaseman nimen.

Klikkaa sitten nähdäksesi säähavainnot ja -ennusteet.

Kartan vaihtaminen: klikkaa mustalla rastilla varustettuja vihreitä pisteitä, niin voit zoomata sisään; viivalla varustettua vihreää pistettä, niin voit zoomata ulos tai vihreitä nuolia, niin pääset viereisille kartoille.


METAR-TAF: